Time;durP1;ratioP1;P1;durP2;ratioP2;P2;SDS_P1;SDS_P2;PMS_P1;PMS_P2;Temp;Humidity;BMP_temperature;BMP_pressure;BME280_temperature;BME280_humidity;BME280_pressure;Samples;Min_cycle;Max_cycle;Signal;HPM_P1;HPM_P2
2023/06/20 00:00:48;;;;;;;8.48;4.72;;;20.10;99.90;;;;;;4995644;28;20046;-56
2023/06/20 00:03:15;;;;;;;7.35;4.32;;;20.10;99.90;;;;;;5008327;28;20064;-57
2023/06/20 00:05:43;;;;;;;8.60;4.87;;;20.10;99.90;;;;;;4660591;28;10000970;-57
2023/06/20 00:08:10;;;;;;;11.45;4.57;;;20.10;99.90;;;;;;5005006;28;20527;-56
2023/06/20 00:10:36;;;;;;;12.00;4.60;;;20.00;99.90;;;;;;5007362;28;20042;-56
2023/06/20 00:13:03;;;;;;;7.18;4.20;;;20.00;99.90;;;;;;5006216;28;20054;-55
2023/06/20 00:15:30;;;;;;;7.97;3.80;;;20.00;99.90;;;;;;5004798;28;20057;-56
2023/06/20 00:18:00;;;;;;;8.77;4.05;;;20.00;99.90;;;;;;5012791;28;20062;-56
2023/06/20 00:20:28;;;;;;;12.00;4.85;;;20.00;99.90;;;;;;5007256;28;20470;-57
2023/06/20 00:22:55;;;;;;;8.75;3.08;;;20.10;99.90;;;;;;5008110;28;20137;-56
2023/06/20 00:25:22;;;;;;;10.40;4.80;;;20.10;99.90;;;;;;5007925;28;20058;-52
2023/06/20 00:27:49;;;;;;;14.52;5.80;;;20.10;99.90;;;;;;5007806;28;20507;-57
2023/06/20 00:30:16;;;;;;;5.88;3.53;;;20.10;99.90;;;;;;4998063;28;20053;-55
2023/06/20 00:32:43;;;;;;;10.48;3.88;;;20.20;99.90;;;;;;5017219;28;20045;-56
2023/06/20 00:35:10;;;;;;;14.07;4.30;;;20.20;99.90;;;;;;5010251;28;20046;-56
2023/06/20 00:37:38;;;;;;;9.52;3.97;;;20.10;99.90;;;;;;4996471;28;20520;-56
2023/06/20 00:40:09;;;;;;;5.47;3.08;;;20.00;99.90;;;;;;5006897;28;20046;-56
2023/06/20 00:42:36;;;;;;;8.60;4.05;;;20.00;99.90;;;;;;5007482;28;20046;-54
2023/06/20 00:45:03;;;;;;;6.40;3.33;;;20.00;99.90;;;;;;5001709;28;20444;-56
2023/06/20 00:47:30;;;;;;;8.18;3.92;;;20.00;99.90;;;;;;5011478;28;20141;-56
2023/06/20 00:49:57;;;;;;;11.35;3.67;;;20.00;99.90;;;;;;5006145;28;20050;-54
2023/06/20 00:52:25;;;;;;;6.95;3.28;;;20.00;99.90;;;;;;4998434;28;20092;-56
2023/06/20 00:54:52;;;;;;;7.18;3.72;;;20.00;99.90;;;;;;5008377;28;20108;-56
2023/06/20 00:57:19;;;;;;;7.97;3.40;;;20.00;99.90;;;;;;5010567;28;20569;-54
2023/06/20 00:59:49;;;;;;;9.93;3.47;;;20.00;99.90;;;;;;5011308;28;20382;-55
2023/06/20 01:02:16;;;;;;;8.48;3.63;;;19.90;99.90;;;;;;5010449;28;20046;-56
2023/06/20 01:04:46;;;;;;;7.40;3.70;;;19.80;99.90;;;;;;5009872;28;20123;-57
2023/06/20 01:07:18;;;;;;;6.05;3.70;;;19.80;99.90;;;;;;4995432;28;20509;-56
2023/06/20 01:09:52;;;;;;;6.40;3.47;;;19.70;99.90;;;;;;5008403;28;20049;-54
2023/06/20 01:12:28;;;;;;;7.35;3.58;;;19.70;99.90;;;;;;4997466;28;20052;-56
2023/06/20 01:15:06;;;;;;;6.03;3.28;;;19.80;99.90;;;;;;4994564;28;20111;-56
2023/06/20 01:17:42;;;;;;;8.73;4.03;;;19.80;99.90;;;;;;4995638;28;20440;-57
2023/06/20 01:20:35;;;;;;;7.50;3.35;;;19.90;99.90;;;;;;4992466;28;20049;-57
2023/06/20 01:23:05;;;;;;;6.28;3.50;;;19.90;99.90;;;;;;5001845;28;20049;-56
2023/06/20 01:25:40;;;;;;;7.72;3.83;;;19.90;99.90;;;;;;5008998;28;20066;-55
2023/06/20 01:28:27;;;;;;;9.50;4.35;;;19.90;99.90;;;;;;5011008;28;20042;-56
2023/06/20 01:31:00;;;;;;;11.00;3.63;;;19.90;99.90;;;;;;4998843;28;20417;-52
2023/06/20 01:33:29;;;;;;;5.55;3.13;;;19.90;99.90;;;;;;4964298;28;20041;-55
2023/06/20 01:35:57;;;;;;;6.22;3.63;;;19.90;99.90;;;;;;4983249;28;20041;-56
2023/06/20 01:38:25;;;;;;;7.43;3.72;;;19.90;99.90;;;;;;4981719;28;20045;-57
2023/06/20 01:40:52;;;;;;;7.65;3.60;;;19.90;99.90;;;;;;4983230;28;20064;-55
2023/06/20 01:43:19;;;;;;;12.65;3.88;;;19.90;99.90;;;;;;4993198;28;20050;-56
2023/06/20 01:45:46;;;;;;;6.93;3.60;;;19.90;99.90;;;;;;4990399;28;20046;-57
2023/06/20 01:48:12;;;;;;;8.45;3.95;;;19.90;99.90;;;;;;4972765;28;20081;-57
2023/06/20 01:50:39;;;;;;;8.85;4.43;;;19.90;99.90;;;;;;4991466;28;20103;-55
2023/06/20 01:53:06;;;;;;;7.35;4.20;;;19.80;99.90;;;;;;4980685;28;20092;-56
2023/06/20 01:55:33;;;;;;;8.55;4.20;;;19.80;99.90;;;;;;5009897;28;20493;-57
2023/06/20 01:58:00;;;;;;;5.53;3.90;;;19.70;99.90;;;;;;5011858;28;20046;-55
2023/06/20 02:00:27;;;;;;;9.70;3.80;;;19.70;99.90;;;;;;4976134;28;20567;-56
2023/06/20 02:02:58;;;;;;;8.43;3.88;;;19.70;99.90;;;;;;4999030;28;20046;-56
2023/06/20 02:05:26;;;;;;;5.72;3.85;;;19.70;99.90;;;;;;4986732;28;20050;-55
2023/06/20 02:07:54;;;;;;;7.47;3.78;;;19.70;99.90;;;;;;5007277;28;20050;-55
2023/06/20 02:10:21;;;;;;;8.20;4.22;;;19.70;99.90;;;;;;5009249;28;20058;-55
2023/06/20 02:12:51;;;;;;;9.00;4.90;;;19.60;99.90;;;;;;5010140;28;20112;-56
2023/06/20 02:15:18;;;;;;;13.75;4.78;;;19.50;99.90;;;;;;5008855;28;20050;-56
2023/06/20 02:17:45;;;;;;;8.73;3.92;;;19.40;99.90;;;;;;5003584;28;20057;-55
2023/06/20 02:20:13;;;;;;;9.68;3.80;;;19.40;99.90;;;;;;4992844;28;20494;-57
2023/06/20 02:22:42;;;;;;;6.78;4.32;;;19.30;99.90;;;;;;4977395;28;20053;-57
2023/06/20 02:25:10;;;;;;;12.82;5.53;;;19.30;99.90;;;;;;4995930;28;20497;-57
2023/06/20 02:27:39;;;;;;;8.13;4.60;;;19.30;99.90;;;;;;5008970;28;20057;-56
2023/06/20 02:30:08;;;;;;;11.40;4.25;;;19.40;99.90;;;;;;5003878;28;20049;-54
2023/06/20 02:32:35;;;;;;;7.07;3.95;;;19.30;99.90;;;;;;4992489;28;20045;-56
2023/06/20 02:35:02;;;;;;;8.98;4.32;;;19.30;99.90;;;;;;4996108;28;20500;-56
2023/06/20 02:37:29;;;;;;;9.93;4.60;;;19.30;99.90;;;;;;5005104;28;20436;-56
2023/06/20 02:39:56;;;;;;;11.40;4.57;;;19.20;99.90;;;;;;4985157;28;20053;-58
2023/06/20 02:42:24;;;;;;;10.02;4.72;;;19.10;99.90;;;;;;4998542;28;20053;-57
2023/06/20 02:44:50;;;;;;;9.23;4.03;;;19.10;99.90;;;;;;5009249;28;20053;-55
2023/06/20 02:47:33;;;;;;;7.88;4.22;;;19.00;99.90;;;;;;5008899;28;20640;-56
2023/06/20 02:50:40;;;;;;;11.73;4.78;;;18.90;99.90;;;;;;5007479;28;20482;-55
2023/06/20 02:53:24;;;;;;;8.23;4.38;;;18.90;99.90;;;;;;4992822;28;20050;-55
2023/06/20 02:55:56;;;;;;;9.07;5.13;;;18.90;99.90;;;;;;4997431;28;20050;-56
2023/06/20 02:58:25;;;;;;;7.43;4.13;;;18.90;99.90;;;;;;5001061;28;20046;-58
2023/06/20 03:00:52;;;;;;;13.27;4.95;;;18.80;99.90;;;;;;4995776;28;20671;-57
2023/06/20 03:03:33;;;;;;;8.45;4.07;;;18.80;99.90;;;;;;4981821;28;20054;-58
2023/06/20 03:06:00;;;;;;;13.05;4.70;;;18.90;99.90;;;;;;4996616;28;20038;-57
2023/06/20 03:08:29;;;;;;;10.05;4.20;;;18.90;99.90;;;;;;4993401;28;20083;-54
2023/06/20 03:10:56;;;;;;;16.35;4.57;;;18.80;99.90;;;;;;4981809;28;20548;-56
2023/06/20 03:13:24;;;;;;;8.20;4.97;;;18.80;99.90;;;;;;4990041;28;20057;-56
2023/06/20 03:15:50;;;;;;;10.38;4.70;;;18.80;99.90;;;;;;4998553;28;20054;-57
2023/06/20 03:18:18;;;;;;;13.45;4.63;;;18.80;99.90;;;;;;5017497;28;20140;-56
2023/06/20 03:20:45;;;;;;;9.27;4.28;;;18.80;99.90;;;;;;5009249;28;20042;-56
2023/06/20 03:23:12;;;;;;;11.77;5.97;;;18.90;99.90;;;;;;5015872;28;20053;-56
2023/06/20 03:25:39;;;;;;;7.25;4.18;;;18.90;99.90;;;;;;5011748;28;20054;-56
2023/06/20 03:28:06;;;;;;;8.30;4.80;;;19.00;99.90;;;;;;5014010;28;20052;-55
2023/06/20 03:30:33;;;;;;;8.75;4.82;;;19.00;99.90;;;;;;5013804;28;20217;-56
2023/06/20 03:32:59;;;;;;;10.02;4.95;;;19.00;99.90;;;;;;5004953;28;20520;-55
2023/06/20 03:35:26;;;;;;;8.13;4.07;;;19.00;99.90;;;;;;4999739;28;20555;-56
2023/06/20 03:37:54;;;;;;;8.10;4.30;;;19.00;99.90;;;;;;5008429;28;20046;-56
2023/06/20 03:40:21;;;;;;;7.20;4.03;;;19.00;99.90;;;;;;5007819;28;20045;-56
2023/06/20 03:42:49;;;;;;;6.32;4.03;;;19.00;99.90;;;;;;5008880;28;20752;-55
2023/06/20 03:45:16;;;;;;;6.47;4.43;;;18.90;99.90;;;;;;5008335;28;20108;-52
2023/06/20 03:47:42;;;;;;;8.60;4.72;;;18.90;99.90;;;;;;5009955;28;20061;-56
2023/06/20 03:50:09;;;;;;;7.93;4.65;;;18.90;99.90;;;;;;5008114;28;20096;-54
2023/06/20 03:52:36;;;;;;;8.45;4.75;;;18.90;99.90;;;;;;5008425;28;20104;-54
2023/06/20 03:55:03;;;;;;;8.10;4.68;;;18.90;99.90;;;;;;5010733;28;20455;-53
2023/06/20 03:57:30;;;;;;;8.60;5.03;;;19.00;99.90;;;;;;5007749;28;20057;-54
2023/06/20 03:59:57;;;;;;;8.75;5.05;;;19.00;99.90;;;;;;5012883;28;20489;-55
2023/06/20 04:02:24;;;;;;;10.20;5.20;;;19.00;99.90;;;;;;5005485;28;20053;-54
2023/06/20 04:04:50;;;;;;;5.78;4.00;;;19.00;99.90;;;;;;5005639;28;20073;-55
2023/06/20 04:07:20;;;;;;;7.53;4.88;;;19.00;99.90;;;;;;5007561;28;20050;-51
2023/06/20 04:09:49;;;;;;;7.57;4.15;;;19.00;99.90;;;;;;5008185;28;20112;-53
2023/06/20 04:12:16;;;;;;;10.00;5.40;;;19.10;99.90;;;;;;4997071;28;20064;-56
2023/06/20 04:14:42;;;;;;;11.38;5.50;;;19.10;99.90;;;;;;5005578;28;20046;-52
2023/06/20 04:17:09;;;;;;;6.63;4.93;;;19.10;99.90;;;;;;5007725;28;20061;-57
2023/06/20 04:19:36;;;;;;;10.85;5.97;;;19.20;99.90;;;;;;5016907;28;20050;-55
2023/06/20 04:22:03;;;;;;;6.80;4.90;;;19.20;99.90;;;;;;5001441;28;20073;-54
2023/06/20 04:24:30;;;;;;;7.53;4.20;;;19.10;99.90;;;;;;5008789;28;20131;-55
2023/06/20 04:26:57;;;;;;;7.95;5.18;;;19.10;99.90;;;;;;5007804;28;20125;-54
2023/06/20 04:29:29;;;;;;;9.55;5.20;;;19.10;99.90;;;;;;5008174;28;20042;-52
2023/06/20 04:31:56;;;;;;;8.35;5.75;;;19.20;99.90;;;;;;5006850;28;20077;-53
2023/06/20 04:34:24;;;;;;;14.93;6.30;;;19.20;99.90;;;;;;5006497;28;20464;-54
2023/06/20 04:36:51;;;;;;;8.38;5.82;;;19.20;99.90;;;;;;5004718;28;20065;-56
2023/06/20 04:39:18;;;;;;;9.98;6.35;;;19.10;99.90;;;;;;5007642;28;20054;-56
2023/06/20 04:41:45;;;;;;;9.02;5.60;;;19.20;99.90;;;;;;5007121;28;20049;-55
2023/06/20 04:44:12;;;;;;;9.80;6.60;;;19.20;99.90;;;;;;4994925;28;20056;-52
2023/06/20 04:46:39;;;;;;;12.18;7.30;;;19.20;99.90;;;;;;5007356;28;20110;-55
2023/06/20 04:49:06;;;;;;;15.38;7.15;;;19.30;99.90;;;;;;5007111;28;20104;-53
2023/06/20 04:51:33;;;;;;;10.07;6.45;;;19.30;99.90;;;;;;5006848;28;20061;-55
2023/06/20 04:54:00;;;;;;;19.77;6.50;;;19.30;99.90;;;;;;5009399;28;20054;-54
2023/06/20 04:56:27;;;;;;;10.93;6.95;;;19.30;99.90;;;;;;5007917;28;20050;-52
2023/06/20 04:58:54;;;;;;;10.80;6.35;;;19.20;99.90;;;;;;5007806;28;20048;-53
2023/06/20 05:01:20;;;;;;;14.60;7.45;;;19.20;99.90;;;;;;5006695;28;20049;-57
2023/06/20 05:03:47;;;;;;;14.10;9.05;;;19.20;99.90;;;;;;5009221;28;20070;-57
2023/06/20 05:06:17;;;;;;;13.85;7.80;;;19.20;99.90;;;;;;5008068;28;20529;-56
2023/06/20 05:08:44;;;;;;;11.73;7.57;;;19.20;99.90;;;;;;5007490;28;20070;-55
2023/06/20 05:11:11;;;;;;;14.82;8.57;;;19.10;99.90;;;;;;5004121;28;20045;-57
2023/06/20 05:13:39;;;;;;;16.73;8.63;;;19.10;99.90;;;;;;5012094;28;20037;-55
2023/06/20 05:16:05;;;;;;;15.88;8.95;;;19.00;99.90;;;;;;5006065;28;20065;-54
2023/06/20 05:18:33;;;;;;;13.98;8.57;;;19.00;99.90;;;;;;4993392;28;20046;-56
2023/06/20 05:20:59;;;;;;;13.63;9.05;;;19.00;99.90;;;;;;5004447;28;20049;-56
2023/06/20 05:23:26;;;;;;;16.27;9.60;;;18.90;99.90;;;;;;5007436;28;20484;-55
2023/06/20 05:25:54;;;;;;;12.68;8.98;;;18.90;99.90;;;;;;5007232;28;20046;-52
2023/06/20 05:28:21;;;;;;;15.65;9.05;;;18.90;99.90;;;;;;5008529;28;20130;-56
2023/06/20 05:30:48;;;;;;;12.82;9.15;;;18.90;99.90;;;;;;5010963;28;20060;-56
2023/06/20 05:33:15;;;;;;;15.93;9.45;;;18.90;99.90;;;;;;5010448;28;20160;-56
2023/06/20 05:35:44;;;;;;;16.38;9.65;;;18.90;99.90;;;;;;5010883;28;20053;-56
2023/06/20 05:38:12;;;;;;;16.40;11.13;;;18.90;99.90;;;;;;5011555;28;20049;-58
2023/06/20 05:40:39;;;;;;;17.73;10.10;;;18.80;99.90;;;;;;5000245;28;20207;-58
2023/06/20 05:43:06;;;;;;;18.67;10.80;;;18.80;99.90;;;;;;5010678;28;20088;-57
2023/06/20 05:45:32;;;;;;;14.40;10.00;;;18.80;99.90;;;;;;5022684;28;20037;-58
2023/06/20 05:47:59;;;;;;;16.92;11.45;;;18.80;99.90;;;;;;4662569;28;9999999;-58
2023/06/20 05:50:26;;;;;;;14.88;9.48;;;18.70;99.90;;;;;;5008440;28;20476;-59
2023/06/20 05:52:54;;;;;;;27.30;9.57;;;18.70;99.90;;;;;;5008255;28;20444;-58
2023/06/20 05:55:21;;;;;;;12.38;9.63;;;18.70;99.90;;;;;;5008793;28;20053;-58
2023/06/20 05:57:48;;;;;;;20.65;10.43;;;18.70;99.90;;;;;;5007598;28;20209;-57
2023/06/20 06:00:16;;;;;;;20.98;10.38;;;18.70;99.90;;;;;;5007501;28;20046;-59
2023/06/20 06:02:46;;;;;;;16.02;10.70;;;18.80;99.90;;;;;;5006520;28;20046;-59
2023/06/20 06:05:13;;;;;;;17.17;10.43;;;18.80;99.90;;;;;;5007699;28;20239;-59
2023/06/20 06:07:40;;;;;;;17.65;10.57;;;18.80;99.90;;;;;;5007325;28;20053;-59
2023/06/20 06:10:07;;;;;;;19.38;11.45;;;18.70;99.90;;;;;;5021010;28;20246;-57
2023/06/20 06:12:37;;;;;;;24.92;11.60;;;18.70;99.90;;;;;;5010742;28;20065;-58
2023/06/20 06:15:04;;;;;;;23.80;10.95;;;18.70;99.90;;;;;;5001234;28;20048;-58
2023/06/20 06:17:32;;;;;;;24.35;11.13;;;18.70;99.90;;;;;;5006762;28;20058;-57
2023/06/20 06:19:59;;;;;;;31.17;15.23;;;18.60;99.90;;;;;;5007095;28;20505;-53
2023/06/20 06:22:25;;;;;;;22.73;12.88;;;18.50;99.90;;;;;;4995894;28;20049;-56
2023/06/20 06:24:52;;;;;;;26.92;15.30;;;18.50;99.90;;;;;;5017829;28;20057;-55
2023/06/20 06:27:19;;;;;;;16.08;11.80;;;18.40;99.90;;;;;;5017243;28;20108;-54
2023/06/20 06:29:46;;;;;;;23.83;13.50;;;18.40;99.90;;;;;;5015568;28;20045;-54
2023/06/20 06:32:13;;;;;;;19.98;12.50;;;18.30;99.90;;;;;;5015314;28;20085;-53
2023/06/20 06:34:41;;;;;;;22.27;13.38;;;18.30;99.90;;;;;;4986155;28;20045;-51
2023/06/20 06:37:08;;;;;;;27.77;13.68;;;18.30;99.90;;;;;;5000069;28;20041;-53
2023/06/20 06:39:36;;;;;;;26.55;13.65;;;18.30;99.90;;;;;;4999900;28;20046;-55
2023/06/20 06:42:03;;;;;;;21.40;13.38;;;18.30;99.90;;;;;;5014552;28;20050;-55
2023/06/20 06:44:30;;;;;;;20.10;14.07;;;18.40;99.90;;;;;;5016718;28;20413;-49
2023/06/20 06:46:57;;;;;;;23.77;15.00;;;18.40;99.90;;;;;;5024131;28;20054;-57
2023/06/20 06:49:26;;;;;;;21.85;14.55;;;18.40;99.90;;;;;;5002526;28;20046;-52
2023/06/20 06:51:52;;;;;;;21.80;15.55;;;18.40;99.90;;;;;;5009026;28;20108;-55
2023/06/20 06:54:22;;;;;;;20.15;13.30;;;18.50;99.90;;;;;;4994889;28;20050;-54
2023/06/20 06:56:49;;;;;;;20.08;13.70;;;18.50;99.90;;;;;;4984269;28;20061;-49
2023/06/20 06:59:16;;;;;;;23.52;14.98;;;18.50;99.90;;;;;;5013981;28;20520;-52
2023/06/20 07:01:43;;;;;;;24.55;14.80;;;18.50;99.90;;;;;;5014303;28;20046;-53
2023/06/20 07:04:10;;;;;;;23.48;14.13;;;18.60;99.90;;;;;;5010238;28;20140;-51
2023/06/20 07:06:37;;;;;;;19.23;14.77;;;18.70;99.90;;;;;;5008976;28;20075;-52
2023/06/20 07:09:04;;;;;;;21.42;15.75;;;18.60;99.90;;;;;;5013630;28;20053;-53
2023/06/20 07:11:30;;;;;;;20.02;13.95;;;18.70;99.90;;;;;;5013404;28;20045;-52
2023/06/20 07:13:57;;;;;;;26.27;14.18;;;18.70;99.90;;;;;;5014168;28;20037;-54
2023/06/20 07:16:25;;;;;;;20.30;13.43;;;18.70;99.90;;;;;;5010606;28;20473;-53
2023/06/20 07:18:52;;;;;;;19.23;12.25;;;18.80;99.90;;;;;;5011815;28;20096;-52
2023/06/20 07:21:19;;;;;;;16.92;12.70;;;18.80;99.90;;;;;;5015282;28;20055;-53
2023/06/20 07:23:46;;;;;;;14.68;11.82;;;18.80;99.90;;;;;;5007480;28;20046;-55
2023/06/20 07:26:13;;;;;;;14.50;10.40;;;18.90;99.90;;;;;;5016299;28;20132;-53
2023/06/20 07:28:40;;;;;;;16.60;10.93;;;19.00;99.90;;;;;;5007589;28;20050;-52
2023/06/20 07:31:07;;;;;;;18.75;12.65;;;19.00;99.90;;;;;;5018936;28;20569;-54
2023/06/20 07:33:34;;;;;;;13.70;9.43;;;19.10;99.90;;;;;;5008363;28;20567;-56
2023/06/20 07:36:00;;;;;;;15.27;9.63;;;19.20;99.90;;;;;;5015453;28;20049;-53
2023/06/20 07:38:27;;;;;;;18.92;10.75;;;19.30;99.90;;;;;;5012609;28;20074;-55
2023/06/20 07:40:54;;;;;;;10.73;7.75;;;19.40;99.90;;;;;;5006656;28;20042;-55
2023/06/20 07:43:24;;;;;;;12.73;7.38;;;19.60;99.90;;;;;;5011221;28;20050;-56
2023/06/20 07:45:54;;;;;;;10.27;7.53;;;19.70;99.90;;;;;;5005277;28;20057;-55
2023/06/20 07:48:25;;;;;;;6.72;5.35;;;19.80;99.90;;;;;;5006326;28;20053;-55
2023/06/20 07:50:51;;;;;;;10.10;6.25;;;19.90;99.90;;;;;;5006247;28;20050;-52
2023/06/20 07:53:18;;;;;;;10.75;6.30;;;20.00;99.90;;;;;;4993227;28;20061;-55
2023/06/20 07:55:45;;;;;;;8.40;4.80;;;20.20;99.90;;;;;;5007503;28;20050;-55
2023/06/20 07:58:12;;;;;;;5.95;4.65;;;20.40;99.90;;;;;;5007225;28;20038;-54
2023/06/20 08:00:40;;;;;;;10.50;3.78;;;20.50;99.90;;;;;;5005605;28;20131;-56
2023/06/20 08:03:07;;;;;;;5.80;4.35;;;20.70;99.90;;;;;;5004190;28;20080;-52
2023/06/20 08:05:35;;;;;;;4.80;3.47;;;20.70;99.90;;;;;;5006180;28;20045;-55
2023/06/20 08:08:02;;;;;;;9.55;3.50;;;20.90;99.90;;;;;;5006573;28;20057;-56
2023/06/20 08:10:28;;;;;;;3.25;2.47;;;21.10;99.90;;;;;;5006526;28;20065;-57
2023/06/20 08:12:55;;;;;;;3.03;2.10;;;21.20;99.90;;;;;;5007385;28;20409;-54
2023/06/20 08:15:22;;;;;;;4.90;3.13;;;21.40;99.90;;;;;;5007043;28;20549;-54
2023/06/20 08:17:49;;;;;;;2.08;1.75;;;21.40;99.90;;;;;;4995696;28;20159;-55
2023/06/20 08:20:16;;;;;;;4.90;2.20;;;21.50;99.90;;;;;;5005333;28;20068;-56
2023/06/20 08:22:43;;;;;;;1.75;1.45;;;21.60;99.90;;;;;;5005994;28;20045;-55
2023/06/20 08:25:10;;;;;;;2.95;2.38;;;21.70;99.90;;;;;;5006080;28;20057;-54
2023/06/20 08:27:37;;;;;;;5.20;1.52;;;21.70;99.90;;;;;;5005757;28;20056;-58
2023/06/20 08:30:04;;;;;;;2.53;2.05;;;21.60;99.90;;;;;;4996899;28;20049;-56
2023/06/20 08:32:35;;;;;;;3.75;2.25;;;21.60;99.90;;;;;;4648566;28;10000657;-54
2023/06/20 08:35:03;;;;;;;3.30;2.20;;;21.60;99.90;;;;;;5009661;28;20128;-54
2023/06/20 08:37:30;;;;;;;5.10;2.40;;;21.70;99.90;;;;;;5007048;28;20061;-52
2023/06/20 08:39:57;;;;;;;3.58;1.70;;;21.70;99.90;;;;;;5011055;28;20164;-55
2023/06/20 08:42:24;;;;;;;8.48;2.15;;;21.60;99.90;;;;;;5006785;28;20042;-52
2023/06/20 08:44:51;;;;;;;2.88;2.47;;;21.60;99.90;;;;;;4992186;28;20045;-55
2023/06/20 08:47:24;;;;;;;;;;;21.60;99.90;;;;;;5007458;28;20156;-52
2023/06/20 08:49:51;;;;;;;5.60;3.08;;;21.60;99.90;;;;;;5007136;28;19963;-55
2023/06/20 08:52:26;;;;;;;5.30;3.30;;;21.50;99.90;;;;;;5006672;28;20049;-55
2023/06/20 08:54:53;;;;;;;6.22;3.55;;;21.50;99.90;;;;;;4995291;28;20136;-56
2023/06/20 08:57:20;;;;;;;7.82;4.95;;;21.40;99.90;;;;;;4992988;28;20453;-54
2023/06/20 08:59:48;;;;;;;6.75;4.05;;;21.50;99.90;;;;;;4994976;28;20057;-58
2023/06/20 09:02:16;;;;;;;12.35;4.55;;;21.40;99.90;;;;;;4993593;28;20073;-54
2023/06/20 09:04:43;;;;;;;5.78;5.07;;;21.40;99.90;;;;;;5007597;28;20480;-56
2023/06/20 09:07:17;;;;;;;8.30;5.28;;;21.40;99.90;;;;;;5013457;28;20053;-54
2023/06/20 09:09:44;;;;;;;12.98;7.10;;;21.40;99.90;;;;;;5012115;28;20050;-54
2023/06/20 09:12:11;;;;;;;17.52;5.80;;;21.30;99.90;;;;;;4998981;28;20046;-55
2023/06/20 09:14:38;;;;;;;12.23;7.07;;;21.20;99.90;;;;;;5011157;28;20053;-53
2023/06/20 09:17:05;;;;;;;15.85;7.28;;;21.20;99.90;;;;;;5016696;28;20131;-56
2023/06/20 09:19:43;;;;;;;10.75;6.72;;;21.20;99.90;;;;;;5011150;28;20058;-55
2023/06/20 09:22:13;;;;;;;13.63;7.57;;;21.20;99.90;;;;;;5017422;28;20416;-56
2023/06/20 09:24:44;;;;;;;11.55;7.30;;;21.20;99.90;;;;;;5007531;28;20576;-56
2023/06/20 09:27:12;;;;;;;10.50;6.63;;;21.10;99.90;;;;;;5018680;28;20052;-54
2023/06/20 09:29:52;;;;;;;10.10;6.72;;;21.10;99.90;;;;;;5006625;28;20447;-54
2023/06/20 09:32:22;;;;;;;14.40;6.97;;;21.10;99.90;;;;;;5007912;28;20057;-56
2023/06/20 09:34:49;;;;;;;8.98;7.18;;;21.10;99.90;;;;;;5019953;28;20404;-56
2023/06/20 09:37:19;;;;;;;9.75;7.53;;;21.00;99.90;;;;;;5018261;28;20521;-58
2023/06/20 09:39:46;;;;;;;10.15;7.50;;;20.90;99.90;;;;;;5010849;28;20100;-56
2023/06/20 09:42:13;;;;;;;11.68;8.10;;;20.90;99.90;;;;;;5010297;28;20054;-59
2023/06/20 09:44:40;;;;;;;10.73;7.05;;;20.90;99.90;;;;;;5007190;28;20058;-55
2023/06/20 09:47:07;;;;;;;13.20;8.00;;;21.00;99.90;;;;;;5020046;28;20088;-53
2023/06/20 09:49:35;;;;;;;15.80;7.38;;;21.10;99.90;;;;;;4991748;28;20089;-55
2023/06/20 09:52:07;;;;;;;10.23;7.03;;;21.10;99.90;;;;;;5007839;28;20066;-56
2023/06/20 09:54:50;;;;;;;12.88;7.15;;;21.20;99.90;;;;;;4995444;28;20144;-55
2023/06/20 09:57:21;;;;;;;9.98;7.10;;;21.40;99.90;;;;;;5003924;28;20062;-55
2023/06/20 09:59:49;;;;;;;12.48;7.97;;;21.60;99.90;;;;;;5007232;28;20080;-51
2023/06/20 10:02:17;;;;;;;13.32;7.80;;;21.70;99.90;;;;;;5007402;28;20046;-56
2023/06/20 10:04:44;;;;;;;12.45;8.00;;;21.70;99.90;;;;;;4982728;28;20065;-55
2023/06/20 10:07:14;;;;;;;11.48;8.10;;;21.70;99.90;;;;;;5006979;28;20042;-56
2023/06/20 10:09:41;;;;;;;13.82;7.75;;;21.60;99.90;;;;;;5006215;28;20045;-53
2023/06/20 10:12:09;;;;;;;14.05;8.45;;;21.70;99.90;;;;;;5005958;28;20053;-57
2023/06/20 10:14:36;;;;;;;14.35;7.63;;;21.80;99.90;;;;;;4993714;28;20042;-56
2023/06/20 10:17:07;;;;;;;13.48;7.88;;;21.80;99.90;;;;;;5012424;28;20068;-55
2023/06/20 10:19:50;;;;;;;18.00;8.65;;;21.90;99.90;;;;;;5005840;28;20058;-56
2023/06/20 10:22:43;;;;;;;16.65;8.18;;;22.10;99.90;;;;;;5006950;28;20061;-54
2023/06/20 10:25:12;;;;;;;12.90;7.70;;;22.10;99.90;;;;;;5003978;28;20049;-56
2023/06/20 10:28:01;;;;;;;10.50;6.82;;;22.20;99.90;;;;;;5006943;28;20077;-55
2023/06/20 10:30:49;;;;;;;10.57;7.05;;;22.20;99.90;;;;;;5006567;28;20508;-55
2023/06/20 10:33:35;;;;;;;20.35;8.02;;;22.20;99.90;;;;;;5006686;28;20873;-54
2023/06/20 10:36:06;;;;;;;8.32;5.97;;;22.20;99.90;;;;;;5009627;28;20049;-59
2023/06/20 10:38:37;;;;;;;10.60;6.15;;;22.20;99.90;;;;;;5006415;28;20058;-52
2023/06/20 10:41:10;;;;;;;12.93;6.55;;;22.30;99.90;;;;;;5012176;28;20056;-55
2023/06/20 10:43:47;;;;;;;9.75;5.70;;;22.40;99.90;;;;;;4996448;28;20058;-56
2023/06/20 10:46:14;;;;;;;11.82;4.82;;;22.50;99.90;;;;;;5006261;28;20058;-57
2023/06/20 10:48:40;;;;;;;10.50;4.45;;;22.60;99.90;;;;;;5005704;28;20050;-57
2023/06/20 10:51:08;;;;;;;8.82;4.50;;;22.90;99.90;;;;;;4994384;28;20112;-57
2023/06/20 10:53:35;;;;;;;7.68;4.43;;;23.30;99.90;;;;;;5006365;28;20049;-56
2023/06/20 10:56:03;;;;;;;6.10;3.88;;;23.60;99.90;;;;;;5005988;28;20053;-56
2023/06/20 10:58:29;;;;;;;4.95;3.72;;;23.70;99.90;;;;;;5006383;28;20061;-54
2023/06/20 11:00:59;;;;;;;9.93;3.30;;;23.60;99.90;;;;;;5006337;28;20038;-55
2023/06/20 11:03:26;;;;;;;5.30;3.10;;;23.50;99.90;;;;;;5006282;28;20108;-56
2023/06/20 11:05:54;;;;;;;13.00;4.07;;;23.40;99.90;;;;;;4996688;28;20056;-56
2023/06/20 11:08:27;;;;;;;8.88;3.80;;;23.30;99.90;;;;;;5005088;28;20168;-56
2023/06/20 11:10:54;;;;;;;6.70;3.53;;;23.30;99.90;;;;;;5001623;28;20042;-54
2023/06/20 11:13:21;;;;;;;7.88;3.05;;;23.30;99.90;;;;;;5005502;28;20054;-54
2023/06/20 11:15:48;;;;;;;6.63;3.42;;;23.40;99.90;;;;;;5007097;28;20049;-57
2023/06/20 11:18:15;;;;;;;8.45;3.40;;;23.40;99.90;;;;;;5004938;28;20512;-54
2023/06/20 11:20:43;;;;;;;6.88;3.22;;;23.50;99.90;;;;;;5005440;28;20120;-56
2023/06/20 11:23:12;;;;;;;5.90;2.92;;;23.50;99.90;;;;;;4997721;28;20112;-53
2023/06/20 11:25:41;;;;;;;10.35;3.17;;;23.40;99.90;;;;;;5005780;28;20042;-54
2023/06/20 11:28:12;;;;;;;4.38;2.50;;;23.40;99.90;;;;;;5008180;28;20517;-57
2023/06/20 11:30:41;;;;;;;3.80;2.20;;;23.50;99.90;;;;;;4999794;28;20053;-57
2023/06/20 11:33:11;;;;;;;5.30;2.47;;;23.40;99.90;;;;;;4995915;28;20501;-54
2023/06/20 11:35:48;;;;;;;7.28;2.78;;;23.40;99.90;;;;;;5005291;28;20515;-57
2023/06/20 11:38:22;;;;;;;4.05;2.63;;;23.40;99.90;;;;;;5000385;28;20054;-53
2023/06/20 11:41:01;;;;;;;3.90;2.42;;;23.40;99.90;;;;;;5004841;28;20112;-52
2023/06/20 11:43:33;;;;;;;4.45;2.20;;;23.30;99.90;;;;;;4999862;28;20057;-57
2023/06/20 11:46:00;;;;;;;7.53;2.40;;;23.40;99.90;;;;;;5002887;28;20057;-56
2023/06/20 11:48:28;;;;;;;3.42;2.10;;;23.30;99.90;;;;;;5004434;28;20061;-56
2023/06/20 11:50:59;;;;;;;13.05;2.83;;;23.30;99.90;;;;;;5001116;28;20132;-57
2023/06/20 11:53:34;;;;;;;22.30;4.45;;;23.40;99.90;;;;;;5004718;28;20055;-58
2023/06/20 11:56:07;;;;;;;5.53;2.33;;;23.30;99.90;;;;;;5004759;28;20077;-58
2023/06/20 11:58:43;;;;;;;4.60;1.98;;;23.30;99.90;;;;;;4994482;28;20493;-56
2023/06/20 12:01:20;;;;;;;8.23;2.58;;;23.50;99.90;;;;;;5005051;28;20054;-56
2023/06/20 12:04:12;;;;;;;3.00;2.33;;;23.50;99.90;;;;;;5004898;28;20053;-57
2023/06/20 12:06:41;;;;;;;4.95;1.92;;;23.50;99.90;;;;;;5004750;28;20048;-57
2023/06/20 12:09:09;;;;;;;1.90;1.58;;;23.60;99.90;;;;;;5004713;28;20045;-56
2023/06/20 12:11:57;;;;;;;3.50;1.73;;;23.60;99.90;;;;;;5004303;28;20054;-58
2023/06/20 12:14:24;;;;;;;3.80;1.70;;;23.50;99.90;;;;;;5000357;28;20061;-57
2023/06/20 12:16:51;;;;;;;3.10;1.90;;;23.60;99.90;;;;;;5016840;28;20764;-56
2023/06/20 12:19:22;;;;;;;3.47;1.90;;;23.80;99.90;;;;;;5004248;28;20060;-58
2023/06/20 12:21:49;;;;;;;2.90;1.55;;;24.00;99.90;;;;;;5010550;28;20045;-57
2023/06/20 12:24:16;;;;;;;1.95;1.52;;;24.00;99.90;;;;;;5000826;28;20049;-55
2023/06/20 12:26:46;;;;;;;2.63;1.55;;;24.00;99.90;;;;;;5005050;28;20444;-56
2023/06/20 12:29:14;;;;;;;4.95;1.58;;;23.80;99.90;;;;;;4996008;28;20150;-57
2023/06/20 12:31:41;;;;;;;5.03;1.65;;;23.60;99.90;;;;;;5009842;28;20049;-57
2023/06/20 12:34:07;;;;;;;4.10;1.42;;;23.50;99.90;;;;;;5006877;28;20122;-55
2023/06/20 12:36:34;;;;;;;3.08;1.70;;;23.40;99.90;;;;;;5005409;28;20108;-56
2023/06/20 12:39:02;;;;;;;2.60;1.75;;;23.50;99.90;;;;;;4995242;28;20390;-57
2023/06/20 12:41:33;;;;;;;5.85;1.30;;;23.70;99.90;;;;;;5011174;28;20052;-56
2023/06/20 12:44:03;;;;;;;34.05;4.15;;;23.80;99.90;;;;;;5013301;28;20069;-57
2023/06/20 12:46:30;;;;;;;5.05;1.88;;;24.10;99.90;;;;;;5011606;28;20389;-57
2023/06/20 12:48:58;;;;;;;2.05;1.10;;;24.00;99.90;;;;;;5015630;28;20080;-55